sensor_id;sensor_type;location;lat;lon;timestamp;temperature;humidity
28010;DHT22;15334;49.494;8.410;2023-05-07T00:00:04;16.20;99.90
28010;DHT22;15334;49.494;8.410;2023-05-07T00:02:53;16.20;99.90
28010;DHT22;15334;49.494;8.410;2023-05-07T00:05:44;16.20;99.90
28010;DHT22;15334;49.494;8.410;2023-05-07T00:08:13;16.20;99.90
28010;DHT22;15334;49.494;8.410;2023-05-07T00:10:44;16.10;99.90
28010;DHT22;15334;49.494;8.410;2023-05-07T00:13:13;16.20;99.90
28010;DHT22;15334;49.494;8.410;2023-05-07T00:15:44;16.20;99.90
28010;DHT22;15334;49.494;8.410;2023-05-07T00:18:17;16.20;99.90
28010;DHT22;15334;49.494;8.410;2023-05-07T00:20:48;16.10;99.90
28010;DHT22;15334;49.494;8.410;2023-05-07T00:23:21;16.00;99.90
28010;DHT22;15334;49.494;8.410;2023-05-07T00:25:55;16.00;99.90
28010;DHT22;15334;49.494;8.410;2023-05-07T00:28:25;15.90;99.90
28010;DHT22;15334;49.494;8.410;2023-05-07T00:30:54;16.00;99.90
28010;DHT22;15334;49.494;8.410;2023-05-07T00:33:25;16.00;99.90
28010;DHT22;15334;49.494;8.410;2023-05-07T00:35:54;16.00;99.90
28010;DHT22;15334;49.494;8.410;2023-05-07T00:38:25;16.00;99.90
28010;DHT22;15334;49.494;8.410;2023-05-07T00:41:00;16.00;99.90
28010;DHT22;15334;49.494;8.410;2023-05-07T00:43:32;16.00;99.90
28010;DHT22;15334;49.494;8.410;2023-05-07T00:46:03;15.90;99.90
28010;DHT22;15334;49.494;8.410;2023-05-07T00:48:34;15.90;99.90
28010;DHT22;15334;49.494;8.410;2023-05-07T00:51:04;15.90;99.90
28010;DHT22;15334;49.494;8.410;2023-05-07T00:53:35;16.00;99.90
28010;DHT22;15334;49.494;8.410;2023-05-07T00:56:06;16.00;99.90
28010;DHT22;15334;49.494;8.410;2023-05-07T00:58:40;16.00;99.90
28010;DHT22;15334;49.494;8.410;2023-05-07T01:01:16;15.90;99.90
28010;DHT22;15334;49.494;8.410;2023-05-07T01:03:46;15.90;99.90
28010;DHT22;15334;49.494;8.410;2023-05-07T01:06:16;15.90;99.90
28010;DHT22;15334;49.494;8.410;2023-05-07T01:08:46;15.80;99.90
28010;DHT22;15334;49.494;8.410;2023-05-07T01:11:19;15.80;99.90
28010;DHT22;15334;49.494;8.410;2023-05-07T01:13:50;15.70;99.90
28010;DHT22;15334;49.494;8.410;2023-05-07T01:16:24;15.80;99.90
28010;DHT22;15334;49.494;8.410;2023-05-07T01:18:53;15.70;99.90
28010;DHT22;15334;49.494;8.410;2023-05-07T01:21:27;15.70;99.90
28010;DHT22;15334;49.494;8.410;2023-05-07T01:24:04;15.60;99.90
28010;DHT22;15334;49.494;8.410;2023-05-07T01:26:37;15.60;99.90
28010;DHT22;15334;49.494;8.410;2023-05-07T01:29:13;15.50;99.90
28010;DHT22;15334;49.494;8.410;2023-05-07T01:31:49;15.50;99.90
28010;DHT22;15334;49.494;8.410;2023-05-07T01:34:21;15.50;99.90
28010;DHT22;15334;49.494;8.410;2023-05-07T01:36:53;15.50;99.90
28010;DHT22;15334;49.494;8.410;2023-05-07T01:39:27;15.40;99.90
28010;DHT22;15334;49.494;8.410;2023-05-07T01:41:56;15.40;99.90
28010;DHT22;15334;49.494;8.410;2023-05-07T01:44:27;15.40;99.90
28010;DHT22;15334;49.494;8.410;2023-05-07T01:46:57;15.40;99.90
28010;DHT22;15334;49.494;8.410;2023-05-07T01:49:26;15.40;99.90
28010;DHT22;15334;49.494;8.410;2023-05-07T01:51:54;15.40;99.90
28010;DHT22;15334;49.494;8.410;2023-05-07T01:54:27;15.40;99.90
28010;DHT22;15334;49.494;8.410;2023-05-07T01:56:56;15.40;99.90
28010;DHT22;15334;49.494;8.410;2023-05-07T01:59:24;15.40;99.90
28010;DHT22;15334;49.494;8.410;2023-05-07T02:01:53;15.40;99.90
28010;DHT22;15334;49.494;8.410;2023-05-07T02:04:21;15.30;99.90
28010;DHT22;15334;49.494;8.410;2023-05-07T02:06:54;15.20;99.90
28010;DHT22;15334;49.494;8.410;2023-05-07T02:09:28;15.20;99.90
28010;DHT22;15334;49.494;8.410;2023-05-07T02:12:03;15.20;99.90
28010;DHT22;15334;49.494;8.410;2023-05-07T02:14:35;15.20;99.90
28010;DHT22;15334;49.494;8.410;2023-05-07T02:17:03;15.20;99.90
28010;DHT22;15334;49.494;8.410;2023-05-07T02:19:31;15.20;99.90
28010;DHT22;15334;49.494;8.410;2023-05-07T02:21:59;15.20;99.90
28010;DHT22;15334;49.494;8.410;2023-05-07T02:24:29;15.20;99.90
28010;DHT22;15334;49.494;8.410;2023-05-07T02:26:57;15.20;99.90
28010;DHT22;15334;49.494;8.410;2023-05-07T02:29:25;15.10;99.90
28010;DHT22;15334;49.494;8.410;2023-05-07T02:31:53;15.10;99.90
28010;DHT22;15334;49.494;8.410;2023-05-07T02:34:22;15.10;99.90
28010;DHT22;15334;49.494;8.410;2023-05-07T02:36:50;15.10;99.90
28010;DHT22;15334;49.494;8.410;2023-05-07T02:39:18;15.10;99.90
28010;DHT22;15334;49.494;8.410;2023-05-07T02:41:48;15.10;99.90
28010;DHT22;15334;49.494;8.410;2023-05-07T02:44:16;15.10;99.90
28010;DHT22;15334;49.494;8.410;2023-05-07T02:46:44;15.00;99.90
28010;DHT22;15334;49.494;8.410;2023-05-07T02:49:12;15.00;99.90
28010;DHT22;15334;49.494;8.410;2023-05-07T02:51:41;15.00;99.90
28010;DHT22;15334;49.494;8.410;2023-05-07T02:54:09;14.90;99.90
28010;DHT22;15334;49.494;8.410;2023-05-07T02:56:37;14.90;99.90
28010;DHT22;15334;49.494;8.410;2023-05-07T02:59:07;14.80;99.90
28010;DHT22;15334;49.494;8.410;2023-05-07T03:01:35;14.80;99.90
28010;DHT22;15334;49.494;8.410;2023-05-07T03:04:03;14.70;99.90
28010;DHT22;15334;49.494;8.410;2023-05-07T03:06:31;14.70;99.90
28010;DHT22;15334;49.494;8.410;2023-05-07T03:08:59;14.70;99.90
28010;DHT22;15334;49.494;8.410;2023-05-07T03:11:27;14.60;99.90
28010;DHT22;15334;49.494;8.410;2023-05-07T03:13:56;14.50;99.90
28010;DHT22;15334;49.494;8.410;2023-05-07T03:16:25;14.50;99.90
28010;DHT22;15334;49.494;8.410;2023-05-07T03:18:54;14.50;99.90
28010;DHT22;15334;49.494;8.410;2023-05-07T03:21:22;14.50;99.90
28010;DHT22;15334;49.494;8.410;2023-05-07T03:23:50;14.50;99.90
28010;DHT22;15334;49.494;8.410;2023-05-07T03:26:18;14.50;99.90
28010;DHT22;15334;49.494;8.410;2023-05-07T03:28:47;14.60;99.90
28010;DHT22;15334;49.494;8.410;2023-05-07T03:31:15;14.60;99.90
28010;DHT22;15334;49.494;8.410;2023-05-07T03:33:52;14.50;99.90
28010;DHT22;15334;49.494;8.410;2023-05-07T03:36:21;14.50;99.90
28010;DHT22;15334;49.494;8.410;2023-05-07T03:38:49;14.40;99.90
28010;DHT22;15334;49.494;8.410;2023-05-07T03:41:18;14.40;99.90
28010;DHT22;15334;49.494;8.410;2023-05-07T03:43:46;14.40;99.90
28010;DHT22;15334;49.494;8.410;2023-05-07T03:46:15;14.40;99.90
28010;DHT22;15334;49.494;8.410;2023-05-07T03:48:43;14.50;99.90
28010;DHT22;15334;49.494;8.410;2023-05-07T03:51:12;14.50;99.90
28010;DHT22;15334;49.494;8.410;2023-05-07T03:53:40;14.50;99.90
28010;DHT22;15334;49.494;8.410;2023-05-07T03:56:08;14.50;99.90
28010;DHT22;15334;49.494;8.410;2023-05-07T03:58:37;14.40;99.90
28010;DHT22;15334;49.494;8.410;2023-05-07T04:01:05;14.40;99.90
28010;DHT22;15334;49.494;8.410;2023-05-07T04:03:34;14.30;99.90
28010;DHT22;15334;49.494;8.410;2023-05-07T04:06:02;14.20;99.90
28010;DHT22;15334;49.494;8.410;2023-05-07T04:08:32;14.30;99.90
28010;DHT22;15334;49.494;8.410;2023-05-07T04:11:00;14.20;99.90
28010;DHT22;15334;49.494;8.410;2023-05-07T04:13:28;14.20;99.90
28010;DHT22;15334;49.494;8.410;2023-05-07T04:15:57;14.20;99.90
28010;DHT22;15334;49.494;8.410;2023-05-07T04:18:25;14.10;99.90
28010;DHT22;15334;49.494;8.410;2023-05-07T04:20:53;14.10;99.90
28010;DHT22;15334;49.494;8.410;2023-05-07T04:23:22;14.10;99.90
28010;DHT22;15334;49.494;8.410;2023-05-07T04:25:51;14.10;99.90
28010;DHT22;15334;49.494;8.410;2023-05-07T04:28:21;14.10;99.90
28010;DHT22;15334;49.494;8.410;2023-05-07T04:30:50;14.10;99.90
28010;DHT22;15334;49.494;8.410;2023-05-07T04:33:18;14.20;99.90
28010;DHT22;15334;49.494;8.410;2023-05-07T04:35:46;14.30;99.90
28010;DHT22;15334;49.494;8.410;2023-05-07T04:38:15;14.30;99.90
28010;DHT22;15334;49.494;8.410;2023-05-07T04:40:43;14.30;99.90
28010;DHT22;15334;49.494;8.410;2023-05-07T04:43:12;14.40;99.90
28010;DHT22;15334;49.494;8.410;2023-05-07T04:45:40;14.50;99.90
28010;DHT22;15334;49.494;8.410;2023-05-07T04:48:09;14.60;99.90
28010;DHT22;15334;49.494;8.410;2023-05-07T04:50:37;14.70;99.90
28010;DHT22;15334;49.494;8.410;2023-05-07T04:53:05;14.80;99.90
28010;DHT22;15334;49.494;8.410;2023-05-07T04:55:33;14.80;99.90
28010;DHT22;15334;49.494;8.410;2023-05-07T04:58:02;14.80;99.90
28010;DHT22;15334;49.494;8.410;2023-05-07T05:00:34;14.80;99.90
28010;DHT22;15334;49.494;8.410;2023-05-07T05:03:03;14.80;99.90
28010;DHT22;15334;49.494;8.410;2023-05-07T05:05:33;14.80;99.90
28010;DHT22;15334;49.494;8.410;2023-05-07T05:08:01;14.90;99.90
28010;DHT22;15334;49.494;8.410;2023-05-07T05:10:29;14.90;99.90
28010;DHT22;15334;49.494;8.410;2023-05-07T05:12:57;15.00;99.90
28010;DHT22;15334;49.494;8.410;2023-05-07T05:15:26;15.00;99.90
28010;DHT22;15334;49.494;8.410;2023-05-07T05:17:56;14.90;99.90
28010;DHT22;15334;49.494;8.410;2023-05-07T05:20:27;14.90;99.90
28010;DHT22;15334;49.494;8.410;2023-05-07T05:22:57;14.90;99.90
28010;DHT22;15334;49.494;8.410;2023-05-07T05:25:26;14.90;99.90
28010;DHT22;15334;49.494;8.410;2023-05-07T05:27:59;15.10;99.90
28010;DHT22;15334;49.494;8.410;2023-05-07T05:30:28;15.20;99.90
28010;DHT22;15334;49.494;8.410;2023-05-07T05:32:58;15.20;99.90
28010;DHT22;15334;49.494;8.410;2023-05-07T05:35:31;15.30;99.90
28010;DHT22;15334;49.494;8.410;2023-05-07T05:38:00;15.40;99.90
28010;DHT22;15334;49.494;8.410;2023-05-07T05:40:31;15.50;99.90
28010;DHT22;15334;49.494;8.410;2023-05-07T05:43:00;15.60;99.90
28010;DHT22;15334;49.494;8.410;2023-05-07T05:45:29;15.70;99.90
28010;DHT22;15334;49.494;8.410;2023-05-07T05:48:00;15.70;99.90
28010;DHT22;15334;49.494;8.410;2023-05-07T05:50:28;15.80;99.90
28010;DHT22;15334;49.494;8.410;2023-05-07T05:52:56;15.90;99.90
28010;DHT22;15334;49.494;8.410;2023-05-07T05:55:26;15.80;99.90
28010;DHT22;15334;49.494;8.410;2023-05-07T05:58:07;15.90;99.90
28010;DHT22;15334;49.494;8.410;2023-05-07T06:00:37;16.00;99.90
28010;DHT22;15334;49.494;8.410;2023-05-07T06:03:20;16.10;99.90
28010;DHT22;15334;49.494;8.410;2023-05-07T06:05:48;16.20;99.90
28010;DHT22;15334;49.494;8.410;2023-05-07T06:08:16;16.30;99.90
28010;DHT22;15334;49.494;8.410;2023-05-07T06:11:01;16.40;99.90
28010;DHT22;15334;49.494;8.410;2023-05-07T06:13:38;16.50;99.90
28010;DHT22;15334;49.494;8.410;2023-05-07T06:16:21;16.60;99.90
28010;DHT22;15334;49.494;8.410;2023-05-07T06:18:51;16.60;99.90
28010;DHT22;15334;49.494;8.410;2023-05-07T06:21:19;16.70;99.90
28010;DHT22;15334;49.494;8.410;2023-05-07T06:23:52;16.70;99.90
28010;DHT22;15334;49.494;8.410;2023-05-07T06:26:43;16.90;99.90
28010;DHT22;15334;49.494;8.410;2023-05-07T06:29:40;16.90;99.90
28010;DHT22;15334;49.494;8.410;2023-05-07T06:32:19;16.80;99.90
28010;DHT22;15334;49.494;8.410;2023-05-07T06:34:58;16.80;99.90
28010;DHT22;15334;49.494;8.410;2023-05-07T06:37:26;16.90;99.90
28010;DHT22;15334;49.494;8.410;2023-05-07T06:39:57;16.90;99.90
28010;DHT22;15334;49.494;8.410;2023-05-07T06:42:44;17.00;99.90
28010;DHT22;15334;49.494;8.410;2023-05-07T06:45:23;17.10;99.90
28010;DHT22;15334;49.494;8.410;2023-05-07T06:47:52;17.20;99.90
28010;DHT22;15334;49.494;8.410;2023-05-07T06:50:21;17.30;99.90
28010;DHT22;15334;49.494;8.410;2023-05-07T06:52:50;17.40;99.90
28010;DHT22;15334;49.494;8.410;2023-05-07T06:55:18;17.50;99.90
28010;DHT22;15334;49.494;8.410;2023-05-07T06:57:47;17.60;99.90
28010;DHT22;15334;49.494;8.410;2023-05-07T07:00:16;17.80;99.90
28010;DHT22;15334;49.494;8.410;2023-05-07T07:02:44;17.90;99.90
28010;DHT22;15334;49.494;8.410;2023-05-07T07:05:12;18.10;99.90
28010;DHT22;15334;49.494;8.410;2023-05-07T07:07:42;18.20;99.90
28010;DHT22;15334;49.494;8.410;2023-05-07T07:10:10;18.30;99.90
28010;DHT22;15334;49.494;8.410;2023-05-07T07:12:38;18.20;99.90
28010;DHT22;15334;49.494;8.410;2023-05-07T07:15:07;18.30;99.90
28010;DHT22;15334;49.494;8.410;2023-05-07T07:17:35;18.40;99.90
28010;DHT22;15334;49.494;8.410;2023-05-07T07:20:05;18.50;99.90
28010;DHT22;15334;49.494;8.410;2023-05-07T07:22:33;18.40;99.90
28010;DHT22;15334;49.494;8.410;2023-05-07T07:25:03;18.40;99.90
28010;DHT22;15334;49.494;8.410;2023-05-07T07:27:31;18.50;99.90
28010;DHT22;15334;49.494;8.410;2023-05-07T07:30:04;18.50;99.90
28010;DHT22;15334;49.494;8.410;2023-05-07T07:32:32;18.60;99.90
28010;DHT22;15334;49.494;8.410;2023-05-07T07:35:00;18.70;99.90
28010;DHT22;15334;49.494;8.410;2023-05-07T07:37:30;18.70;99.90
28010;DHT22;15334;49.494;8.410;2023-05-07T07:40:06;18.70;99.90
28010;DHT22;15334;49.494;8.410;2023-05-07T07:42:37;18.80;99.90
28010;DHT22;15334;49.494;8.410;2023-05-07T07:45:08;19.00;99.90
28010;DHT22;15334;49.494;8.410;2023-05-07T07:47:37;19.00;99.90
28010;DHT22;15334;49.494;8.410;2023-05-07T07:50:06;19.00;99.90
28010;DHT22;15334;49.494;8.410;2023-05-07T07:52:35;19.00;99.90
28010;DHT22;15334;49.494;8.410;2023-05-07T07:55:06;19.10;99.90
28010;DHT22;15334;49.494;8.410;2023-05-07T07:57:34;19.10;99.90
28010;DHT22;15334;49.494;8.410;2023-05-07T08:00:04;19.10;99.90
28010;DHT22;15334;49.494;8.410;2023-05-07T08:02:34;19.00;99.90
28010;DHT22;15334;49.494;8.410;2023-05-07T08:05:27;18.90;99.90
28010;DHT22;15334;49.494;8.410;2023-05-07T08:07:56;19.00;99.90
28010;DHT22;15334;49.494;8.410;2023-05-07T08:10:26;19.10;99.90
28010;DHT22;15334;49.494;8.410;2023-05-07T08:12:54;19.10;99.90
28010;DHT22;15334;49.494;8.410;2023-05-07T08:15:23;19.20;99.90
28010;DHT22;15334;49.494;8.410;2023-05-07T08:17:51;19.30;99.90
28010;DHT22;15334;49.494;8.410;2023-05-07T08:20:19;19.40;99.90
28010;DHT22;15334;49.494;8.410;2023-05-07T08:22:47;19.40;99.90
28010;DHT22;15334;49.494;8.410;2023-05-07T08:25:15;19.40;99.90
28010;DHT22;15334;49.494;8.410;2023-05-07T08:27:45;19.50;99.90
28010;DHT22;15334;49.494;8.410;2023-05-07T08:30:14;19.50;99.90
28010;DHT22;15334;49.494;8.410;2023-05-07T08:32:42;19.60;99.90
28010;DHT22;15334;49.494;8.410;2023-05-07T08:35:10;19.60;99.90
28010;DHT22;15334;49.494;8.410;2023-05-07T08:37:38;19.70;99.90
28010;DHT22;15334;49.494;8.410;2023-05-07T08:40:07;19.80;99.90
28010;DHT22;15334;49.494;8.410;2023-05-07T08:42:40;19.80;99.90
28010;DHT22;15334;49.494;8.410;2023-05-07T08:45:10;19.90;99.90
28010;DHT22;15334;49.494;8.410;2023-05-07T08:47:43;20.10;99.90
28010;DHT22;15334;49.494;8.410;2023-05-07T08:50:13;20.30;99.90
28010;DHT22;15334;49.494;8.410;2023-05-07T08:52:41;20.40;99.90
28010;DHT22;15334;49.494;8.410;2023-05-07T08:55:09;20.30;99.90
28010;DHT22;15334;49.494;8.410;2023-05-07T08:57:38;20.50;99.90
28010;DHT22;15334;49.494;8.410;2023-05-07T09:00:07;20.60;99.90
28010;DHT22;15334;49.494;8.410;2023-05-07T09:02:37;20.70;99.90
28010;DHT22;15334;49.494;8.410;2023-05-07T09:05:07;21.00;99.90
28010;DHT22;15334;49.494;8.410;2023-05-07T09:07:35;21.10;99.90
28010;DHT22;15334;49.494;8.410;2023-05-07T09:10:04;21.30;99.90
28010;DHT22;15334;49.494;8.410;2023-05-07T09:12:32;21.40;99.90
28010;DHT22;15334;49.494;8.410;2023-05-07T09:15:02;21.50;99.90
28010;DHT22;15334;49.494;8.410;2023-05-07T09:17:30;21.30;99.90
28010;DHT22;15334;49.494;8.410;2023-05-07T09:20:03;21.30;99.90
28010;DHT22;15334;49.494;8.410;2023-05-07T09:22:36;21.20;99.90
28010;DHT22;15334;49.494;8.410;2023-05-07T09:25:06;21.30;99.90
28010;DHT22;15334;49.494;8.410;2023-05-07T09:27:36;21.50;99.90
28010;DHT22;15334;49.494;8.410;2023-05-07T09:30:05;21.60;99.90
28010;DHT22;15334;49.494;8.410;2023-05-07T09:32:35;21.70;99.90
28010;DHT22;15334;49.494;8.410;2023-05-07T09:35:14;21.60;99.90
28010;DHT22;15334;49.494;8.410;2023-05-07T09:37:42;21.70;99.90
28010;DHT22;15334;49.494;8.410;2023-05-07T09:40:20;21.80;99.90
28010;DHT22;15334;49.494;8.410;2023-05-07T09:42:48;21.90;99.90
28010;DHT22;15334;49.494;8.410;2023-05-07T09:45:21;22.10;99.90
28010;DHT22;15334;49.494;8.410;2023-05-07T09:47:53;22.20;99.90
28010;DHT22;15334;49.494;8.410;2023-05-07T09:50:27;22.50;99.90
28010;DHT22;15334;49.494;8.410;2023-05-07T09:52:57;22.80;99.90
28010;DHT22;15334;49.494;8.410;2023-05-07T09:55:25;23.00;99.90
28010;DHT22;15334;49.494;8.410;2023-05-07T09:57:54;23.20;99.90
28010;DHT22;15334;49.494;8.410;2023-05-07T10:00:24;23.30;99.90
28010;DHT22;15334;49.494;8.410;2023-05-07T10:02:57;23.30;99.90
28010;DHT22;15334;49.494;8.410;2023-05-07T10:05:27;23.30;99.90
28010;DHT22;15334;49.494;8.410;2023-05-07T10:07:55;23.10;99.90
28010;DHT22;15334;49.494;8.410;2023-05-07T10:10:24;23.10;99.90
28010;DHT22;15334;49.494;8.410;2023-05-07T10:12:52;23.10;99.90
28010;DHT22;15334;49.494;8.410;2023-05-07T10:15:21;23.20;99.90
28010;DHT22;15334;49.494;8.410;2023-05-07T10:17:51;23.30;99.90
28010;DHT22;15334;49.494;8.410;2023-05-07T10:20:21;23.40;99.90
28010;DHT22;15334;49.494;8.410;2023-05-07T10:22:51;23.40;99.90
28010;DHT22;15334;49.494;8.410;2023-05-07T10:25:25;23.40;99.90
28010;DHT22;15334;49.494;8.410;2023-05-07T10:27:56;23.50;99.90
28010;DHT22;15334;49.494;8.410;2023-05-07T10:30:30;23.60;99.90
28010;DHT22;15334;49.494;8.410;2023-05-07T10:33:05;23.50;99.90
28010;DHT22;15334;49.494;8.410;2023-05-07T10:35:39;23.50;99.90
28010;DHT22;15334;49.494;8.410;2023-05-07T10:38:10;23.50;99.90
28010;DHT22;15334;49.494;8.410;2023-05-07T10:40:38;23.40;99.90
28010;DHT22;15334;49.494;8.410;2023-05-07T10:43:06;23.20;99.90
28010;DHT22;15334;49.494;8.410;2023-05-07T10:45:36;23.40;99.90
28010;DHT22;15334;49.494;8.410;2023-05-07T10:48:12;23.70;99.90
28010;DHT22;15334;49.494;8.410;2023-05-07T10:51:20;24.10;99.90
28010;DHT22;15334;49.494;8.410;2023-05-07T10:54:19;24.30;99.90
28010;DHT22;15334;49.494;8.410;2023-05-07T10:56:47;24.60;99.90
28010;DHT22;15334;49.494;8.410;2023-05-07T10:59:31;24.70;99.90
28010;DHT22;15334;49.494;8.410;2023-05-07T11:02:01;24.90;99.90
28010;DHT22;15334;49.494;8.410;2023-05-07T11:04:31;25.30;99.90
28010;DHT22;15334;49.494;8.410;2023-05-07T11:07:24;25.50;99.90
28010;DHT22;15334;49.494;8.410;2023-05-07T11:10:04;25.90;99.90
28010;DHT22;15334;49.494;8.410;2023-05-07T11:12:52;26.20;99.90
28010;DHT22;15334;49.494;8.410;2023-05-07T11:15:38;26.80;99.90
28010;DHT22;15334;49.494;8.410;2023-05-07T11:18:06;27.50;98.90
28010;DHT22;15334;49.494;8.410;2023-05-07T11:20:55;28.60;94.90
28010;DHT22;15334;49.494;8.410;2023-05-07T11:23:54;29.70;92.40
28010;DHT22;15334;49.494;8.410;2023-05-07T11:26:25;30.80;88.60
28010;DHT22;15334;49.494;8.410;2023-05-07T11:28:53;31.80;84.60
28010;DHT22;15334;49.494;8.410;2023-05-07T11:31:23;32.20;80.00
28010;DHT22;15334;49.494;8.410;2023-05-07T11:33:53;31.90;77.90
28010;DHT22;15334;49.494;8.410;2023-05-07T11:36:23;31.40;78.80
28010;DHT22;15334;49.494;8.410;2023-05-07T11:38:51;31.90;77.40
28010;DHT22;15334;49.494;8.410;2023-05-07T11:41:19;32.90;75.00
28010;DHT22;15334;49.494;8.410;2023-05-07T11:43:59;34.00;72.10
28010;DHT22;15334;49.494;8.410;2023-05-07T11:46:28;35.30;67.10
28010;DHT22;15334;49.494;8.410;2023-05-07T11:48:56;36.00;63.40
28010;DHT22;15334;49.494;8.410;2023-05-07T11:51:25;36.20;60.70
28010;DHT22;15334;49.494;8.410;2023-05-07T11:53:53;36.20;61.20
28010;DHT22;15334;49.494;8.410;2023-05-07T11:56:21;36.80;60.20
28010;DHT22;15334;49.494;8.410;2023-05-07T11:58:49;37.50;58.50
28010;DHT22;15334;49.494;8.410;2023-05-07T12:01:20;37.70;57.50
28010;DHT22;15334;49.494;8.410;2023-05-07T12:03:48;38.00;56.30
28010;DHT22;15334;49.494;8.410;2023-05-07T12:06:16;38.60;57.60
28010;DHT22;15334;49.494;8.410;2023-05-07T12:08:46;38.60;55.80
28010;DHT22;15334;49.494;8.410;2023-05-07T12:11:15;37.80;54.40
28010;DHT22;15334;49.494;8.410;2023-05-07T12:13:44;37.20;54.50
28010;DHT22;15334;49.494;8.410;2023-05-07T12:16:12;36.10;55.70
28010;DHT22;15334;49.494;8.410;2023-05-07T12:18:42;36.20;55.80
28010;DHT22;15334;49.494;8.410;2023-05-07T12:21:11;36.20;55.30
28010;DHT22;15334;49.494;8.410;2023-05-07T12:23:39;36.30;55.40
28010;DHT22;15334;49.494;8.410;2023-05-07T12:26:08;36.80;54.60
28010;DHT22;15334;49.494;8.410;2023-05-07T12:28:37;37.00;54.80
28010;DHT22;15334;49.494;8.410;2023-05-07T12:31:07;36.40;55.80
28010;DHT22;15334;49.494;8.410;2023-05-07T12:33:35;35.40;58.90
28010;DHT22;15334;49.494;8.410;2023-05-07T12:36:06;35.00;57.10
28010;DHT22;15334;49.494;8.410;2023-05-07T12:38:36;34.80;56.90
28010;DHT22;15334;49.494;8.410;2023-05-07T12:41:05;34.50;57.00
28010;DHT22;15334;49.494;8.410;2023-05-07T12:43:34;34.20;57.70
28010;DHT22;15334;49.494;8.410;2023-05-07T12:46:04;34.60;57.50
28010;DHT22;15334;49.494;8.410;2023-05-07T12:48:33;34.90;57.00
28010;DHT22;15334;49.494;8.410;2023-05-07T12:51:01;34.50;61.00
28010;DHT22;15334;49.494;8.410;2023-05-07T12:53:31;33.90;58.40
28010;DHT22;15334;49.494;8.410;2023-05-07T12:55:59;33.70;58.90
28010;DHT22;15334;49.494;8.410;2023-05-07T12:58:28;34.10;60.40
28010;DHT22;15334;49.494;8.410;2023-05-07T13:00:58;34.70;57.20
28010;DHT22;15334;49.494;8.410;2023-05-07T13:03:29;34.10;58.00
28010;DHT22;15334;49.494;8.410;2023-05-07T13:05:59;32.90;59.30
28010;DHT22;15334;49.494;8.410;2023-05-07T13:08:30;31.70;61.00
28010;DHT22;15334;49.494;8.410;2023-05-07T13:11:00;30.90;62.60
28010;DHT22;15334;49.494;8.410;2023-05-07T13:13:33;30.30;69.10
28010;DHT22;15334;49.494;8.410;2023-05-07T13:16:02;29.80;68.80
28010;DHT22;15334;49.494;8.410;2023-05-07T13:18:31;29.10;72.20
28010;DHT22;15334;49.494;8.410;2023-05-07T13:21:00;28.40;73.80
28010;DHT22;15334;49.494;8.410;2023-05-07T13:23:28;28.00;76.30
28010;DHT22;15334;49.494;8.410;2023-05-07T13:25:58;27.60;81.20
28010;DHT22;15334;49.494;8.410;2023-05-07T13:28:32;27.30;73.90
28010;DHT22;15334;49.494;8.410;2023-05-07T13:31:00;26.90;80.20
28010;DHT22;15334;49.494;8.410;2023-05-07T13:33:28;26.60;79.70
28010;DHT22;15334;49.494;8.410;2023-05-07T13:35:56;26.40;82.20
28010;DHT22;15334;49.494;8.410;2023-05-07T13:38:24;26.00;79.10
28010;DHT22;15334;49.494;8.410;2023-05-07T13:40:52;25.50;80.50
28010;DHT22;15334;49.494;8.410;2023-05-07T13:43:22;25.10;83.20
28010;DHT22;15334;49.494;8.410;2023-05-07T13:45:50;24.80;84.30
28010;DHT22;15334;49.494;8.410;2023-05-07T13:48:18;24.50;85.10
28010;DHT22;15334;49.494;8.410;2023-05-07T13:50:46;24.10;86.80
28010;DHT22;15334;49.494;8.410;2023-05-07T13:53:14;23.80;87.30
28010;DHT22;15334;49.494;8.410;2023-05-07T13:55:44;23.50;88.20
28010;DHT22;15334;49.494;8.410;2023-05-07T13:58:12;23.30;88.40
28010;DHT22;15334;49.494;8.410;2023-05-07T14:00:42;23.10;89.70
28010;DHT22;15334;49.494;8.410;2023-05-07T14:03:10;22.80;90.80
28010;DHT22;15334;49.494;8.410;2023-05-07T14:05:38;22.60;91.40
28010;DHT22;15334;49.494;8.410;2023-05-07T14:08:06;22.50;92.10
28010;DHT22;15334;49.494;8.410;2023-05-07T14:10:34;22.40;93.60
28010;DHT22;15334;49.494;8.410;2023-05-07T14:13:02;22.30;95.40
28010;DHT22;15334;49.494;8.410;2023-05-07T14:15:31;22.10;97.60
28010;DHT22;15334;49.494;8.410;2023-05-07T14:18:00;22.00;99.90
28010;DHT22;15334;49.494;8.410;2023-05-07T14:20:29;21.90;99.90
28010;DHT22;15334;49.494;8.410;2023-05-07T14:22:57;21.70;99.90
28010;DHT22;15334;49.494;8.410;2023-05-07T14:25:25;21.50;99.90
28010;DHT22;15334;49.494;8.410;2023-05-07T14:27:53;21.40;99.90
28010;DHT22;15334;49.494;8.410;2023-05-07T14:30:21;21.20;99.90
28010;DHT22;15334;49.494;8.410;2023-05-07T14:32:51;20.90;99.90
28010;DHT22;15334;49.494;8.410;2023-05-07T14:35:20;20.60;99.90
28010;DHT22;15334;49.494;8.410;2023-05-07T14:37:48;20.40;99.90
28010;DHT22;15334;49.494;8.410;2023-05-07T14:40:16;20.20;99.90
28010;DHT22;15334;49.494;8.410;2023-05-07T14:42:44;20.00;99.90
28010;DHT22;15334;49.494;8.410;2023-05-07T14:45:12;19.80;99.90
28010;DHT22;15334;49.494;8.410;2023-05-07T14:47:40;19.60;99.90
28010;DHT22;15334;49.494;8.410;2023-05-07T14:50:09;19.50;99.90
28010;DHT22;15334;49.494;8.410;2023-05-07T14:52:38;19.30;99.90
28010;DHT22;15334;49.494;8.410;2023-05-07T14:55:07;19.20;99.90
28010;DHT22;15334;49.494;8.410;2023-05-07T14:57:35;19.10;99.90
28010;DHT22;15334;49.494;8.410;2023-05-07T15:00:04;19.00;99.90
28010;DHT22;15334;49.494;8.410;2023-05-07T15:02:35;18.90;99.90
28010;DHT22;15334;49.494;8.410;2023-05-07T15:05:04;18.70;99.90
28010;DHT22;15334;49.494;8.410;2023-05-07T15:07:32;18.50;99.90
28010;DHT22;15334;49.494;8.410;2023-05-07T15:10:02;18.20;99.90
28010;DHT22;15334;49.494;8.410;2023-05-07T15:12:30;18.00;99.90
28010;DHT22;15334;49.494;8.410;2023-05-07T15:14:58;18.00;99.90
28010;DHT22;15334;49.494;8.410;2023-05-07T15:17:26;17.90;99.90
28010;DHT22;15334;49.494;8.410;2023-05-07T15:19:54;17.90;99.90
28010;DHT22;15334;49.494;8.410;2023-05-07T15:22:22;17.80;99.90
28010;DHT22;15334;49.494;8.410;2023-05-07T15:24:54;17.70;99.90
28010;DHT22;15334;49.494;8.410;2023-05-07T15:27:25;17.60;99.90
28010;DHT22;15334;49.494;8.410;2023-05-07T15:29:53;17.60;99.90
28010;DHT22;15334;49.494;8.410;2023-05-07T15:32:21;17.60;99.90
28010;DHT22;15334;49.494;8.410;2023-05-07T15:34:49;17.60;99.90
28010;DHT22;15334;49.494;8.410;2023-05-07T15:37:17;17.70;99.90
28010;DHT22;15334;49.494;8.410;2023-05-07T15:39:45;17.50;99.90
28010;DHT22;15334;49.494;8.410;2023-05-07T15:42:16;17.40;99.90
28010;DHT22;15334;49.494;8.410;2023-05-07T15:44:47;17.30;99.90
28010;DHT22;15334;49.494;8.410;2023-05-07T15:47:16;17.20;99.90
28010;DHT22;15334;49.494;8.410;2023-05-07T15:49:44;17.20;99.90